Aérodrome :
LOGIN :

S'inscrire | Disclaimer

   EN    FR    IT 

 










Légende :    VFR   VFR Marginal   IFR   IFR Intensif   IFR Très Intensif
Visi : 
Plafond : 
>= 8 km
>= 3000ft
5 à 8 km
1000 à 3000 ft
1500m à 5 km
500 à 1000 ft
800 à 1500m
200 à 500 ft
< 800m
< 200 ft
Symboles :   Orages  Brouillard  Fortes neiges  Fortes précipitations  Vent > 20 kt
SIGMETs :   Divers  Orages  Givrage  Turbulence  Onde Orograph.  Cendres Volcan.







- Altitude de l'aérodrome : 659 ft
- Code IATA : LGG


EBLG - Liège

DERNIER METAR :
  • 131820Z 19016KT 9999 FEW009 BKN011 BKN024 06/05 Q0992 TEMPO 4000 RADZ BKN007

METARs EXPIRÉS :
  • 131750Z 19015KT 9999 -RA FEW009 BKN012 BKN021 06/05 Q0993 TEMPO 4000 RADZ BKN007
  • 131720Z 19017G29KT 9000 -RADZ FEW008 BKN011 BKN021 05/04 Q0994 TEMPO 4000 RADZ BKN007
  • 131650Z 20016KT 9000 -RADZ FEW008 BKN010 BKN029 05/04 Q0995 TEMPO 4000 RADZ BKN007
  • 131620Z 19016KT 6000 -RADZ SCT007 BKN009 04/03 Q0996 TEMPO 4000 RADZ BKN007
  • 131550Z 19014KT 9999 -RADZ SCT008 BKN010 04/02 Q0997 TEMPO 4000 RADZ BKN007

TAF TAF EBLG
Valide du 13 à 18h jusqu'au 15 à 00h UTC


131707Z 1318/1424 19014KT 8000 -RA SCT006 BKN010
TEMPO 1318/1321 21017G35KT 4000 RA SHRA BKN007 BKN012TCU
BECMG 1321/1323 SCT015
TEMPO 1321/1323 27015G30KT
TEMPO 1401/1404 27018G35KT 2000 SHRASN BKN005 BKN010CB
TEMPO 1406/1418 23015G25KT 2000 SHRASN BKN005
PROB30
TEMPO 1418/1424 1500 RASN BKN003
Pas de NOTAMs connus pour ce terrain.
1 SIGMET publié pour la FIR Brussels (EBBU) :
 
Turbulence forte
EBBU SIGMET 03 VALID 131600/132000 EBBR
EBBU BRUSSELS FIR SEV TURB FCST W OF LINE N5130 E00500 - N5020 E00400 SFC/FL50 MOV E35KT INTSF=



MET'MAP, la Météo Aéronautique d'un coup d'oeil ! - Copyright ORBIFLY Décembre 2007 - Disclaimer

ORBIFLY MET'MAP TEAM :

Programmation & Développement : Alexandra Zaïnal
Conception & Développement : Baudouin d'Aumeries
Co-Programmation & Développement : Marc-Olivier Méhu
Soutien technique & logistique : Manuel Goepfert

Contact : metmap@orbifly.com




SOURCES & CREDITS :

   NOAA